Montpelier, Mississippi
Current Conditions -  °F | °C
As of 8:35 AM on Friday 28 Nov 2014 (Local Time) from KSTF Reporting Station
NA  
Wind Chill: 34°   Ceiling: NA
Heat Index: 34°   Visibility: NA
Dew Point: 30°   Wind: 0mph
Humidity: 87%   Direction: NA
Pressure: 30.46"   Gusts: NA
Location:  33.72°N, 88.95°W
Report Text: KSTF 281435Z AUTO 00000KT 01/M01 A3046 RMK AO2 PWINO
Loading
Personal Weather Stations






























Interactive Weather Map New forecast layout! Learn more

10-Day Weather Forecast

Advertisements
Track Severe Weather on mobile